sensor_id;sensor_type;location;lat;lon;timestamp;pressure;altitude;pressure_sealevel;temperature;humidity
2339;BME280;1180;51.438;6.978;2023-02-14T00:01:50;102156.25;;;11.17;68.14
2339;BME280;1180;51.438;6.978;2023-02-14T00:04:17;102151.06;;;11.19;68.35
2339;BME280;1180;51.438;6.978;2023-02-14T00:06:43;102142.34;;;11.24;68.31
2339;BME280;1180;51.438;6.978;2023-02-14T00:09:13;102141.56;;;11.21;68.26
2339;BME280;1180;51.438;6.978;2023-02-14T00:11:39;102145.22;;;11.13;67.97
2339;BME280;1180;51.438;6.978;2023-02-14T00:14:05;102139.88;;;11.20;68.57
2339;BME280;1180;51.438;6.978;2023-02-14T00:16:49;102137.28;;;11.21;67.88
2339;BME280;1180;51.438;6.978;2023-02-14T00:19:16;102137.19;;;11.24;67.87
2339;BME280;1180;51.438;6.978;2023-02-14T00:21:42;102136.75;;;11.10;68.46
2339;BME280;1180;51.438;6.978;2023-02-14T00:24:11;102141.97;;;11.08;68.27
2339;BME280;1180;51.438;6.978;2023-02-14T00:26:37;102145.53;;;11.04;68.45
2339;BME280;1180;51.438;6.978;2023-02-14T00:29:06;102137.06;;;11.01;68.88
2339;BME280;1180;51.438;6.978;2023-02-14T00:31:32;102128.00;;;10.89;69.07
2339;BME280;1180;51.438;6.978;2023-02-14T00:33:58;102135.38;;;11.00;68.59
2339;BME280;1180;51.438;6.978;2023-02-14T00:36:24;102123.97;;;11.08;68.35
2339;BME280;1180;51.438;6.978;2023-02-14T00:42:11;102132.47;;;11.10;68.61
2339;BME280;1180;51.438;6.978;2023-02-14T00:44:37;102127.53;;;11.04;68.74
2339;BME280;1180;51.438;6.978;2023-02-14T00:47:03;102130.31;;;10.98;68.52
2339;BME280;1180;51.438;6.978;2023-02-14T00:49:28;102132.91;;;10.96;69.09
2339;BME280;1180;51.438;6.978;2023-02-14T00:51:54;102125.78;;;11.05;68.63
2339;BME280;1180;51.438;6.978;2023-02-14T00:54:19;102134.13;;;11.13;68.40
2339;BME280;1180;51.438;6.978;2023-02-14T00:56:44;102135.25;;;11.04;68.38
2339;BME280;1180;51.438;6.978;2023-02-14T00:59:10;102144.03;;;10.97;68.99
2339;BME280;1180;51.438;6.978;2023-02-14T01:01:36;102138.81;;;11.00;69.09
2339;BME280;1180;51.438;6.978;2023-02-14T01:04:01;102143.75;;;11.06;68.93
2339;BME280;1180;51.438;6.978;2023-02-14T01:06:27;102146.78;;;11.19;68.38
2339;BME280;1180;51.438;6.978;2023-02-14T01:08:53;102147.59;;;11.20;68.36
2339;BME280;1180;51.438;6.978;2023-02-14T01:11:21;102150.03;;;11.24;68.14
2339;BME280;1180;51.438;6.978;2023-02-14T01:13:48;102145.72;;;11.25;68.10
2339;BME280;1180;51.438;6.978;2023-02-14T01:16:17;102150.94;;;11.23;68.01
2339;BME280;1180;51.438;6.978;2023-02-14T01:18:43;102147.41;;;11.26;68.24
2339;BME280;1180;51.438;6.978;2023-02-14T01:23:39;102147.50;;;11.23;68.09
2339;BME280;1180;51.438;6.978;2023-02-14T01:26:06;102137.31;;;11.20;68.12
2339;BME280;1180;51.438;6.978;2023-02-14T01:28:33;102139.88;;;11.20;68.37
2339;BME280;1180;51.438;6.978;2023-02-14T01:31:17;102138.00;;;11.25;67.93
2339;BME280;1180;51.438;6.978;2023-02-14T01:33:44;102129.41;;;11.26;68.38
2339;BME280;1180;51.438;6.978;2023-02-14T01:36:21;102137.31;;;11.20;68.22
2339;BME280;1180;51.438;6.978;2023-02-14T01:38:50;102140.94;;;11.14;68.46
2339;BME280;1180;51.438;6.978;2023-02-14T01:41:17;102133.22;;;11.14;68.79
2339;BME280;1180;51.438;6.978;2023-02-14T01:46:16;102129.00;;;11.13;68.40
2339;BME280;1180;51.438;6.978;2023-02-14T01:48:42;102128.22;;;11.09;68.93
2339;BME280;1180;51.438;6.978;2023-02-14T01:51:07;102131.47;;;11.16;68.75
2339;BME280;1180;51.438;6.978;2023-02-14T01:53:33;102132.38;;;11.13;68.63
2339;BME280;1180;51.438;6.978;2023-02-14T01:56:03;102126.44;;;11.11;68.80
2339;BME280;1180;51.438;6.978;2023-02-14T01:58:32;102128.13;;;11.12;68.60
2339;BME280;1180;51.438;6.978;2023-02-14T02:01:26;102131.69;;;11.08;68.78
2339;BME280;1180;51.438;6.978;2023-02-14T02:03:55;102133.38;;;11.09;68.87
2339;BME280;1180;51.438;6.978;2023-02-14T02:06:32;102136.94;;;11.05;68.90
2339;BME280;1180;51.438;6.978;2023-02-14T02:09:07;102131.41;;;10.89;69.50
2339;BME280;1180;51.438;6.978;2023-02-14T02:11:35;102136.47;;;10.92;69.39
2339;BME280;1180;51.438;6.978;2023-02-14T02:14:01;102140.22;;;10.80;69.94
2339;BME280;1180;51.438;6.978;2023-02-14T02:41:31;102102.09;;;10.68;70.51
2339;BME280;1180;51.438;6.978;2023-02-14T02:44:21;102100.72;;;10.56;70.99
2339;BME280;1180;51.438;6.978;2023-02-14T02:49:32;102089.84;;;10.48;71.42
2339;BME280;1180;51.438;6.978;2023-02-14T02:52:27;102090.78;;;10.44;71.28
2339;BME280;1180;51.438;6.978;2023-02-14T02:55:18;102088.00;;;10.51;71.53
2339;BME280;1180;51.438;6.978;2023-02-14T02:57:45;102088.78;;;10.55;71.15
2339;BME280;1180;51.438;6.978;2023-02-14T03:00:14;102088.91;;;10.50;71.14
2339;BME280;1180;51.438;6.978;2023-02-14T03:02:43;102093.13;;;10.53;71.26
2339;BME280;1180;51.438;6.978;2023-02-14T03:05:29;102092.91;;;10.61;70.86
2339;BME280;1180;51.438;6.978;2023-02-14T03:07:56;102089.59;;;10.55;71.29
2339;BME280;1180;51.438;6.978;2023-02-14T03:10:24;102092.13;;;10.57;71.09
2339;BME280;1180;51.438;6.978;2023-02-14T03:15:51;102094.50;;;10.63;70.76
2339;BME280;1180;51.438;6.978;2023-02-14T03:27:09;102089.66;;;10.54;71.12
2339;BME280;1180;51.438;6.978;2023-02-14T03:34:58;102094.00;;;10.52;71.11
2339;BME280;1180;51.438;6.978;2023-02-14T03:40:02;102091.72;;;10.39;71.55
2339;BME280;1180;51.438;6.978;2023-02-14T03:42:37;102092.72;;;10.35;71.87
2339;BME280;1180;51.438;6.978;2023-02-14T03:45:07;102089.06;;;10.44;71.60
2339;BME280;1180;51.438;6.978;2023-02-14T03:47:35;102090.13;;;10.37;71.43
2339;BME280;1180;51.438;6.978;2023-02-14T03:50:18;102093.34;;;10.44;71.69
2339;BME280;1180;51.438;6.978;2023-02-14T03:52:45;102095.13;;;10.42;71.95
2339;BME280;1180;51.438;6.978;2023-02-14T03:55:15;102095.97;;;10.42;71.83
2339;BME280;1180;51.438;6.978;2023-02-14T03:57:56;102096.03;;;10.39;71.84
2339;BME280;1180;51.438;6.978;2023-02-14T04:00:25;102091.19;;;10.30;72.20
2339;BME280;1180;51.438;6.978;2023-02-14T04:02:59;102091.69;;;10.43;71.95
2339;BME280;1180;51.438;6.978;2023-02-14T04:05:26;102097.53;;;10.48;71.35
2339;BME280;1180;51.438;6.978;2023-02-14T04:07:57;102088.78;;;10.55;71.24
2339;BME280;1180;51.438;6.978;2023-02-14T04:10:23;102093.31;;;10.45;71.72
2339;BME280;1180;51.438;6.978;2023-02-14T04:12:49;102095.81;;;10.48;71.47
2339;BME280;1180;51.438;6.978;2023-02-14T04:15:15;102082.94;;;10.50;71.25
2339;BME280;1180;51.438;6.978;2023-02-14T04:17:40;102088.19;;;10.45;71.73
2339;BME280;1180;51.438;6.978;2023-02-14T04:20:25;102088.19;;;10.45;71.50
2339;BME280;1180;51.438;6.978;2023-02-14T04:22:51;102084.84;;;10.43;71.79
2339;BME280;1180;51.438;6.978;2023-02-14T04:25:18;102086.69;;;10.36;71.97
2339;BME280;1180;51.438;6.978;2023-02-14T04:27:43;102085.78;;;10.39;72.20
2339;BME280;1180;51.438;6.978;2023-02-14T04:30:09;102087.53;;;10.37;72.23
2339;BME280;1180;51.438;6.978;2023-02-14T04:32:37;102084.91;;;10.38;71.98
2339;BME280;1180;51.438;6.978;2023-02-14T04:35:03;102084.94;;;10.40;71.94
2339;BME280;1180;51.438;6.978;2023-02-14T04:37:28;102082.28;;;10.42;72.04
2339;BME280;1180;51.438;6.978;2023-02-14T04:39:54;102079.97;;;10.32;71.87
2339;BME280;1180;51.438;6.978;2023-02-14T04:42:19;102080.19;;;10.24;72.87
2339;BME280;1180;51.438;6.978;2023-02-14T04:44:44;102075.00;;;10.28;72.47
2339;BME280;1180;51.438;6.978;2023-02-14T04:47:10;102075.19;;;10.20;72.51
2339;BME280;1180;51.438;6.978;2023-02-14T04:49:35;102068.28;;;10.22;72.58
2339;BME280;1180;51.438;6.978;2023-02-14T04:52:01;102070.56;;;10.33;72.74
2339;BME280;1180;51.438;6.978;2023-02-14T04:54:27;102068.97;;;10.29;72.42
2339;BME280;1180;51.438;6.978;2023-02-14T04:56:53;102069.22;;;10.19;73.10
2339;BME280;1180;51.438;6.978;2023-02-14T04:59:18;102064.94;;;10.20;72.98
2339;BME280;1180;51.438;6.978;2023-02-14T05:01:43;102062.75;;;10.06;73.29
2339;BME280;1180;51.438;6.978;2023-02-14T05:04:09;102064.56;;;10.02;73.62
2339;BME280;1180;51.438;6.978;2023-02-14T05:06:34;102062.78;;;10.04;73.86
2339;BME280;1180;51.438;6.978;2023-02-14T05:09:00;102055.94;;;10.05;73.55
2339;BME280;1180;51.438;6.978;2023-02-14T05:11:26;102050.81;;;10.05;73.55
2339;BME280;1180;51.438;6.978;2023-02-14T05:13:52;102048.97;;;10.10;73.59
2339;BME280;1180;51.438;6.978;2023-02-14T05:16:18;102046.56;;;10.04;73.59
2339;BME280;1180;51.438;6.978;2023-02-14T05:18:44;102049.84;;;10.09;73.54
2339;BME280;1180;51.438;6.978;2023-02-14T05:21:09;102041.16;;;10.13;73.62
2339;BME280;1180;51.438;6.978;2023-02-14T05:23:35;102046.38;;;10.10;73.28
2339;BME280;1180;51.438;6.978;2023-02-14T05:26:00;102049.03;;;10.07;73.65
2339;BME280;1180;51.438;6.978;2023-02-14T05:28:26;102050.81;;;10.05;73.86
2339;BME280;1180;51.438;6.978;2023-02-14T05:30:51;102045.69;;;10.05;73.56
2339;BME280;1180;51.438;6.978;2023-02-14T05:33:17;102041.53;;;10.01;73.84
2339;BME280;1180;51.438;6.978;2023-02-14T05:35:42;102039.59;;;10.07;73.80
2339;BME280;1180;51.438;6.978;2023-02-14T05:38:07;102036.94;;;10.10;73.30
2339;BME280;1180;51.438;6.978;2023-02-14T05:40:33;102037.94;;;10.06;73.53
2339;BME280;1180;51.438;6.978;2023-02-14T05:42:58;102034.44;;;10.09;73.58
2339;BME280;1180;51.438;6.978;2023-02-14T05:45:24;102032.06;;;10.03;73.46
2339;BME280;1180;51.438;6.978;2023-02-14T05:47:49;102028.81;;;9.96;73.88
2339;BME280;1180;51.438;6.978;2023-02-14T05:50:16;102019.75;;;9.84;74.18
2339;BME280;1180;51.438;6.978;2023-02-14T05:52:42;102023.00;;;9.89;74.57
2339;BME280;1180;51.438;6.978;2023-02-14T05:55:08;102028.22;;;9.86;74.61
2339;BME280;1180;51.438;6.978;2023-02-14T05:57:34;102034.72;;;10.00;73.72
2339;BME280;1180;51.438;6.978;2023-02-14T06:00:00;102027.41;;;9.86;74.00
2339;BME280;1180;51.438;6.978;2023-02-14T06:02:25;102035.91;;;9.88;74.58
2339;BME280;1180;51.438;6.978;2023-02-14T06:04:51;102031.56;;;9.90;74.33
2339;BME280;1180;51.438;6.978;2023-02-14T06:07:16;102036.97;;;9.79;74.51
2339;BME280;1180;51.438;6.978;2023-02-14T06:09:42;102031.88;;;9.77;74.54
2339;BME280;1180;51.438;6.978;2023-02-14T06:12:07;102036.34;;;9.71;74.90
2339;BME280;1180;51.438;6.978;2023-02-14T06:14:33;102048.28;;;9.72;75.10
2339;BME280;1180;51.438;6.978;2023-02-14T06:16:58;102037.19;;;9.71;75.03
2339;BME280;1180;51.438;6.978;2023-02-14T06:19:23;102042.34;;;9.70;75.21
2339;BME280;1180;51.438;6.978;2023-02-14T06:21:48;102048.31;;;9.70;75.11
2339;BME280;1180;51.438;6.978;2023-02-14T06:24:14;102050.25;;;9.62;75.78
2339;BME280;1180;51.438;6.978;2023-02-14T06:26:39;102049.41;;;9.61;75.36
2339;BME280;1180;51.438;6.978;2023-02-14T06:29:05;102051.75;;;9.69;75.39
2339;BME280;1180;51.438;6.978;2023-02-14T06:31:30;102064.03;;;9.58;75.41
2339;BME280;1180;51.438;6.978;2023-02-14T06:33:56;102062.25;;;9.61;75.42
2339;BME280;1180;51.438;6.978;2023-02-14T06:36:22;102061.72;;;9.47;76.34
2339;BME280;1180;51.438;6.978;2023-02-14T06:38:48;102071.03;;;9.51;75.83
2339;BME280;1180;51.438;6.978;2023-02-14T06:41:14;102060.69;;;9.54;75.99
2339;BME280;1180;51.438;6.978;2023-02-14T06:43:44;102070.88;;;9.57;75.90
2339;BME280;1180;51.438;6.978;2023-02-14T06:46:13;102071.81;;;9.54;75.96
2339;BME280;1180;51.438;6.978;2023-02-14T06:48:38;102066.53;;;9.59;76.01
2339;BME280;1180;51.438;6.978;2023-02-14T06:51:04;102074.91;;;9.67;75.67
2339;BME280;1180;51.438;6.978;2023-02-14T06:53:29;102075.44;;;9.79;74.87
2339;BME280;1180;51.438;6.978;2023-02-14T06:55:55;102070.47;;;9.73;75.47
2339;BME280;1180;51.438;6.978;2023-02-14T06:58:20;102077.38;;;9.71;75.30
2339;BME280;1180;51.438;6.978;2023-02-14T07:00:46;102080.03;;;9.66;75.73
2339;BME280;1180;51.438;6.978;2023-02-14T07:03:12;102072.69;;;9.53;76.01
2339;BME280;1180;51.438;6.978;2023-02-14T07:05:37;102073.56;;;9.52;76.43
2339;BME280;1180;51.438;6.978;2023-02-14T07:08:03;102068.47;;;9.51;76.66
2339;BME280;1180;51.438;6.978;2023-02-14T07:10:28;102070.28;;;9.47;76.65
2339;BME280;1180;51.438;6.978;2023-02-14T07:12:54;102070.53;;;9.36;76.88
2339;BME280;1180;51.438;6.978;2023-02-14T07:15:19;102078.16;;;9.39;77.14
2339;BME280;1180;51.438;6.978;2023-02-14T07:17:44;102070.16;;;9.52;76.59
2339;BME280;1180;51.438;6.978;2023-02-14T07:20:11;102074.88;;;9.33;76.98
2339;BME280;1180;51.438;6.978;2023-02-14T07:22:37;102075.63;;;9.38;77.28
2339;BME280;1180;51.438;6.978;2023-02-14T07:25:04;102063.34;;;9.51;77.07
2339;BME280;1180;51.438;6.978;2023-02-14T07:27:30;102068.47;;;9.51;76.41
2339;BME280;1180;51.438;6.978;2023-02-14T07:29:56;102067.63;;;9.50;76.50
2339;BME280;1180;51.438;6.978;2023-02-14T07:32:21;102068.59;;;9.46;76.46
2339;BME280;1180;51.438;6.978;2023-02-14T07:34:48;102070.13;;;9.53;76.33
2339;BME280;1180;51.438;6.978;2023-02-14T07:37:13;102069.19;;;9.56;76.22
2339;BME280;1180;51.438;6.978;2023-02-14T07:39:39;102072.69;;;9.52;76.03
2339;BME280;1180;51.438;6.978;2023-02-14T07:42:05;102069.84;;;9.64;75.73
2339;BME280;1180;51.438;6.978;2023-02-14T07:44:32;102069.19;;;9.56;75.50
2339;BME280;1180;51.438;6.978;2023-02-14T07:46:59;102064.63;;;9.67;75.40
2339;BME280;1180;51.438;6.978;2023-02-14T07:49:24;102067.84;;;9.74;74.54
2339;BME280;1180;51.438;6.978;2023-02-14T07:51:49;102075.59;;;9.73;74.49
2339;BME280;1180;51.438;6.978;2023-02-14T07:54:15;102066.84;;;9.81;74.98
2339;BME280;1180;51.438;6.978;2023-02-14T07:56:40;102067.56;;;9.87;74.15
2339;BME280;1180;51.438;6.978;2023-02-14T07:59:06;102065.00;;;9.85;74.23
2339;BME280;1180;51.438;6.978;2023-02-14T08:01:31;102069.22;;;9.88;73.94
2339;BME280;1180;51.438;6.978;2023-02-14T08:03:56;102066.59;;;9.89;74.50
2339;BME280;1180;51.438;6.978;2023-02-14T08:06:22;102063.16;;;9.90;73.92
2339;BME280;1180;51.438;6.978;2023-02-14T08:08:50;102069.06;;;9.94;74.42
2339;BME280;1180;51.438;6.978;2023-02-14T08:11:15;102077.44;;;10.01;73.69
2339;BME280;1180;51.438;6.978;2023-02-14T08:14:01;102074.63;;;10.08;73.27
2339;BME280;1180;51.438;6.978;2023-02-14T08:16:27;102076.72;;;10.25;72.90
2339;BME280;1180;51.438;6.978;2023-02-14T08:18:52;102066.56;;;10.22;72.62
2339;BME280;1180;51.438;6.978;2023-02-14T08:21:17;102068.03;;;10.31;72.50
2339;BME280;1180;51.438;6.978;2023-02-14T08:23:43;102072.09;;;10.38;72.25
2339;BME280;1180;51.438;6.978;2023-02-14T08:26:08;102077.00;;;10.48;72.12
2339;BME280;1180;51.438;6.978;2023-02-14T08:28:33;102068.50;;;10.46;72.53
2339;BME280;1180;51.438;6.978;2023-02-14T08:31:00;102073.69;;;10.44;72.39
2339;BME280;1180;51.438;6.978;2023-02-14T08:33:26;102070.13;;;10.48;72.01
2339;BME280;1180;51.438;6.978;2023-02-14T08:35:51;102065.19;;;10.42;72.05
2339;BME280;1180;51.438;6.978;2023-02-14T08:38:17;102075.25;;;10.48;71.73
2339;BME280;1180;51.438;6.978;2023-02-14T08:40:43;102080.88;;;10.61;71.25
2339;BME280;1180;51.438;6.978;2023-02-14T08:43:08;102076.44;;;10.66;70.64
2339;BME280;1180;51.438;6.978;2023-02-14T08:45:34;102079.97;;;10.64;71.25
2339;BME280;1180;51.438;6.978;2023-02-14T08:48:01;102077.91;;;10.75;71.26
2339;BME280;1180;51.438;6.978;2023-02-14T08:50:26;102085.50;;;10.78;70.80
2339;BME280;1180;51.438;6.978;2023-02-14T08:52:52;102084.47;;;10.84;70.77
2339;BME280;1180;51.438;6.978;2023-02-14T08:55:17;102084.31;;;10.89;70.72
2339;BME280;1180;51.438;6.978;2023-02-14T08:57:42;102080.75;;;10.93;70.51
2339;BME280;1180;51.438;6.978;2023-02-14T09:00:08;102082.06;;;11.06;69.21
2339;BME280;1180;51.438;6.978;2023-02-14T09:02:34;102071.59;;;11.12;69.81
2339;BME280;1180;51.438;6.978;2023-02-14T09:04:59;102085.09;;;11.19;69.14
2339;BME280;1180;51.438;6.978;2023-02-14T09:07:25;102082.47;;;11.21;69.35
2339;BME280;1180;51.438;6.978;2023-02-14T09:09:50;102072.19;;;11.21;69.19
2339;BME280;1180;51.438;6.978;2023-02-14T09:12:16;102067.66;;;11.29;69.21
2339;BME280;1180;51.438;6.978;2023-02-14T09:14:42;102066.34;;;11.43;68.57
2339;BME280;1180;51.438;6.978;2023-02-14T09:17:09;102058.47;;;11.47;68.12
2339;BME280;1180;51.438;6.978;2023-02-14T09:19:36;102053.44;;;11.44;67.81
2339;BME280;1180;51.438;6.978;2023-02-14T09:22:03;102057.88;;;11.39;67.70
2339;BME280;1180;51.438;6.978;2023-02-14T09:24:30;102049.28;;;11.40;67.78
2339;BME280;1180;51.438;6.978;2023-02-14T09:26:55;102051.75;;;11.43;68.18
2339;BME280;1180;51.438;6.978;2023-02-14T09:29:25;102044.41;;;11.58;67.73
2339;BME280;1180;51.438;6.978;2023-02-14T09:31:55;102043.31;;;11.65;67.61
2339;BME280;1180;51.438;6.978;2023-02-14T09:34:21;102041.25;;;11.75;67.00
2339;BME280;1180;51.438;6.978;2023-02-14T09:36:46;102040.47;;;11.73;67.05
2339;BME280;1180;51.438;6.978;2023-02-14T09:39:30;102047.22;;;11.75;67.27
2339;BME280;1180;51.438;6.978;2023-02-14T09:45:00;102038.19;;;11.89;66.93
2339;BME280;1180;51.438;6.978;2023-02-14T09:50:26;102037.28;;;11.90;66.98
2339;BME280;1180;51.438;6.978;2023-02-14T09:52:59;102039.78;;;11.91;67.66
2339;BME280;1180;51.438;6.978;2023-02-14T09:56:15;102031.91;;;11.96;67.39
2339;BME280;1180;51.438;6.978;2023-02-14T09:58:45;102038.63;;;12.00;66.85
2339;BME280;1180;51.438;6.978;2023-02-14T10:01:20;102033.28;;;12.06;66.70
2339;BME280;1180;51.438;6.978;2023-02-14T10:03:57;102034.06;;;12.08;66.52
2339;BME280;1180;51.438;6.978;2023-02-14T10:11:39;102040.81;;;12.12;65.21
2339;BME280;1180;51.438;6.978;2023-02-14T10:14:12;102040.59;;;12.17;66.02
2339;BME280;1180;51.438;6.978;2023-02-14T10:16:45;102039.47;;;12.24;65.91
2339;BME280;1180;51.438;6.978;2023-02-14T10:19:21;102048.66;;;12.32;66.31
2339;BME280;1180;51.438;6.978;2023-02-14T10:21:53;102042.31;;;12.40;66.44
2339;BME280;1180;51.438;6.978;2023-02-14T10:26:52;102029.50;;;12.39;65.96
2339;BME280;1180;51.438;6.978;2023-02-14T10:29:21;102034.41;;;12.45;66.11
2339;BME280;1180;51.438;6.978;2023-02-14T10:31:58;102036.34;;;12.40;65.73
2339;BME280;1180;51.438;6.978;2023-02-14T10:34:47;102038.97;;;12.38;65.52
2339;BME280;1180;51.438;6.978;2023-02-14T10:37:17;102032.78;;;12.42;65.43
2339;BME280;1180;51.438;6.978;2023-02-14T10:40:03;102026.22;;;12.57;64.95
2339;BME280;1180;51.438;6.978;2023-02-14T10:45:36;102027.88;;;12.59;64.98
2339;BME280;1180;51.438;6.978;2023-02-14T10:48:10;102032.63;;;12.69;65.02
2339;BME280;1180;51.438;6.978;2023-02-14T10:53:34;102010.97;;;12.74;64.02
2339;BME280;1180;51.438;6.978;2023-02-14T10:56:34;102010.84;;;12.99;63.21
2339;BME280;1180;51.438;6.978;2023-02-14T10:59:19;102014.19;;;13.01;62.99
2339;BME280;1180;51.438;6.978;2023-02-14T11:01:48;102005.56;;;13.02;62.81
2339;BME280;1180;51.438;6.978;2023-02-14T11:04:16;102005.13;;;13.13;62.27
2339;BME280;1180;51.438;6.978;2023-02-14T11:06:42;102004.78;;;13.21;61.98
2339;BME280;1180;51.438;6.978;2023-02-14T11:09:11;102010.53;;;13.27;61.89
2339;BME280;1180;51.438;6.978;2023-02-14T11:11:40;102004.06;;;13.38;62.03
2339;BME280;1180;51.438;6.978;2023-02-14T11:16:46;101994.44;;;13.43;61.77
2339;BME280;1180;51.438;6.978;2023-02-14T11:19:33;101990.53;;;13.33;62.01
2339;BME280;1180;51.438;6.978;2023-02-14T11:22:00;101986.91;;;13.37;61.76
2339;BME280;1180;51.438;6.978;2023-02-14T11:27:01;101983.84;;;13.49;60.99
2339;BME280;1180;51.438;6.978;2023-02-14T11:31:55;101983.88;;;13.68;61.23
2339;BME280;1180;51.438;6.978;2023-02-14T11:35:02;101978.09;;;13.82;60.52
2339;BME280;1180;51.438;6.978;2023-02-14T11:38:09;101982.41;;;13.82;59.88
2339;BME280;1180;51.438;6.978;2023-02-14T11:42:52;101974.75;;;13.99;59.89
2339;BME280;1180;51.438;6.978;2023-02-14T11:48:26;101970.97;;;14.07;59.36
2339;BME280;1180;51.438;6.978;2023-02-14T11:53:21;101952.69;;;14.11;59.15
2339;BME280;1180;51.438;6.978;2023-02-14T11:55:52;101949.88;;;14.16;59.26
2339;BME280;1180;51.438;6.978;2023-02-14T11:58:33;101945.47;;;14.18;58.68
2339;BME280;1180;51.438;6.978;2023-02-14T12:01:00;101940.25;;;14.20;59.04
2339;BME280;1180;51.438;6.978;2023-02-14T12:03:37;101931.50;;;14.22;59.02
2339;BME280;1180;51.438;6.978;2023-02-14T12:06:04;101937.97;;;14.31;57.93
2339;BME280;1180;51.438;6.978;2023-02-14T12:08:30;101934.41;;;14.34;57.86
2339;BME280;1180;51.438;6.978;2023-02-14T12:11:01;101930.16;;;14.33;57.56
2339;BME280;1180;51.438;6.978;2023-02-14T12:13:27;101924.75;;;14.37;57.48
2339;BME280;1180;51.438;6.978;2023-02-14T12:15:55;101916.63;;;14.45;56.84
2339;BME280;1180;51.438;6.978;2023-02-14T12:26:52;101901.47;;;14.74;55.92
2339;BME280;1180;51.438;6.978;2023-02-14T12:31:53;101898.31;;;14.67;54.58
2339;BME280;1180;51.438;6.978;2023-02-14T12:34:20;101898.97;;;14.72;55.36
2339;BME280;1180;51.438;6.978;2023-02-14T12:37:30;101891.41;;;14.85;54.22
2339;BME280;1180;51.438;6.978;2023-02-14T12:43:07;101882.72;;;15.04;54.06
2339;BME280;1180;51.438;6.978;2023-02-14T12:51:29;101882.75;;;15.20;53.85
2339;BME280;1180;51.438;6.978;2023-02-14T12:54:34;101875.16;;;15.17;54.53
2339;BME280;1180;51.438;6.978;2023-02-14T12:57:17;101874.50;;;15.29;54.68
2339;BME280;1180;51.438;6.978;2023-02-14T13:00:14;101875.66;;;15.40;54.48
2339;BME280;1180;51.438;6.978;2023-02-14T13:05:33;101869.69;;;15.39;53.78
2339;BME280;1180;51.438;6.978;2023-02-14T13:13:16;101858.59;;;15.53;52.41
2339;BME280;1180;51.438;6.978;2023-02-14T13:16:03;101853.31;;;15.55;52.55
2339;BME280;1180;51.438;6.978;2023-02-14T13:18:42;101850.81;;;15.37;51.13
2339;BME280;1180;51.438;6.978;2023-02-14T13:21:14;101849.22;;;15.51;51.52
2339;BME280;1180;51.438;6.978;2023-02-14T13:23:44;101848.00;;;15.58;52.29
2339;BME280;1180;51.438;6.978;2023-02-14T13:26:15;101851.47;;;15.57;51.27
2339;BME280;1180;51.438;6.978;2023-02-14T13:28:49;101842.03;;;15.56;51.48
2339;BME280;1180;51.438;6.978;2023-02-14T13:31:18;101844.31;;;15.78;51.88
2339;BME280;1180;51.438;6.978;2023-02-14T13:33:51;101844.03;;;15.83;52.28
2339;BME280;1180;51.438;6.978;2023-02-14T13:36:19;101834.94;;;15.92;50.11
2339;BME280;1180;51.438;6.978;2023-02-14T13:38:55;101827.91;;;15.94;50.04
2339;BME280;1180;51.438;6.978;2023-02-14T13:41:23;101832.91;;;15.97;50.14
2339;BME280;1180;51.438;6.978;2023-02-14T13:46:17;101819.47;;;15.90;50.96
2339;BME280;1180;51.438;6.978;2023-02-14T13:49:00;101819.97;;;15.97;50.04
2339;BME280;1180;51.438;6.978;2023-02-14T13:51:49;101819.28;;;16.09;50.10
2339;BME280;1180;51.438;6.978;2023-02-14T13:56:54;101809.03;;;16.22;50.84
2339;BME280;1180;51.438;6.978;2023-02-14T13:59:34;101806.91;;;16.29;50.42
2339;BME280;1180;51.438;6.978;2023-02-14T14:04:52;101802.22;;;16.50;53.61
2339;BME280;1180;51.438;6.978;2023-02-14T14:07:19;101803.81;;;16.53;50.51
2339;BME280;1180;51.438;6.978;2023-02-14T14:17:31;101795.19;;;16.67;49.21
2339;BME280;1180;51.438;6.978;2023-02-14T14:19:57;101790.28;;;16.77;50.94
2339;BME280;1180;51.438;6.978;2023-02-14T14:22:24;101789.81;;;16.84;50.35
2339;BME280;1180;51.438;6.978;2023-02-14T14:25:01;101791.19;;;16.90;50.05
2339;BME280;1180;51.438;6.978;2023-02-14T14:29:59;101792.44;;;16.99;48.79
2339;BME280;1180;51.438;6.978;2023-02-14T14:32:34;101786.19;;;17.16;55.21
2339;BME280;1180;51.438;6.978;2023-02-14T14:35:17;101782.56;;;17.18;51.16
2339;BME280;1180;51.438;6.978;2023-02-14T14:37:53;101782.75;;;17.15;50.02
2339;BME280;1180;51.438;6.978;2023-02-14T14:42:50;101771.84;;;17.10;49.99
2339;BME280;1180;51.438;6.978;2023-02-14T14:45:27;101765.91;;;17.08;50.66
2339;BME280;1180;51.438;6.978;2023-02-14T14:47:58;101757.00;;;17.12;50.59
2339;BME280;1180;51.438;6.978;2023-02-14T14:50:33;101760.88;;;17.20;50.95
2339;BME280;1180;51.438;6.978;2023-02-14T14:53:05;101762.53;;;17.21;49.92
2339;BME280;1180;51.438;6.978;2023-02-14T14:55:42;101758.66;;;17.28;50.33
2339;BME280;1180;51.438;6.978;2023-02-14T14:58:38;101755.59;;;17.21;49.61
2339;BME280;1180;51.438;6.978;2023-02-14T15:01:06;101756.88;;;17.28;49.93
2339;BME280;1180;51.438;6.978;2023-02-14T15:03:35;101754.91;;;17.32;50.74
2339;BME280;1180;51.438;6.978;2023-02-14T15:06:34;101744.03;;;17.40;50.06
2339;BME280;1180;51.438;6.978;2023-02-14T15:08:53;101745.41;;;17.45;50.15
2339;BME280;1180;51.438;6.978;2023-02-14T15:11:23;101739.94;;;17.50;49.80
2339;BME280;1180;51.438;6.978;2023-02-14T15:14:13;101742.75;;;17.60;51.16
2339;BME280;1180;51.438;6.978;2023-02-14T15:16:44;101742.31;;;17.53;48.79
2339;BME280;1180;51.438;6.978;2023-02-14T15:19:36;101737.38;;;17.63;49.12
2339;BME280;1180;51.438;6.978;2023-02-14T15:22:15;101733.66;;;17.80;49.59
2339;BME280;1180;51.438;6.978;2023-02-14T15:24:42;101734.59;;;17.92;48.65
2339;BME280;1180;51.438;6.978;2023-02-14T15:27:28;101725.38;;;18.01;48.76
2339;BME280;1180;51.438;6.978;2023-02-14T15:29:59;101724.34;;;18.03;47.93
2339;BME280;1180;51.438;6.978;2023-02-14T15:32:29;101722.34;;;18.20;48.70
2339;BME280;1180;51.438;6.978;2023-02-14T15:34:56;101718.00;;;18.33;47.78
2339;BME280;1180;51.438;6.978;2023-02-14T15:37:22;101723.28;;;18.45;47.23
2339;BME280;1180;51.438;6.978;2023-02-14T15:39:50;101721.81;;;18.54;47.29
2339;BME280;1180;51.438;6.978;2023-02-14T15:42:29;101725.13;;;18.56;46.52
2339;BME280;1180;51.438;6.978;2023-02-14T15:45:18;101716.63;;;18.41;46.53
2339;BME280;1180;51.438;6.978;2023-02-14T15:47:48;101713.00;;;18.43;46.71